sensor_id;sensor_type;location;lat;lon;timestamp;P1;durP1;ratioP1;P2;durP2;ratioP2
73100;SDS011;61288;53.446;-2.266;2023-01-16T00:00:39;15.00;;;6.73;;
73100;SDS011;61288;53.446;-2.266;2023-01-16T00:03:04;14.20;;;6.25;;
73100;SDS011;61288;53.446;-2.266;2023-01-16T00:05:30;14.07;;;5.93;;
73100;SDS011;61288;53.446;-2.266;2023-01-16T00:07:55;13.90;;;5.97;;
73100;SDS011;61288;53.446;-2.266;2023-01-16T00:10:20;14.75;;;6.22;;
73100;SDS011;61288;53.446;-2.266;2023-01-16T00:12:49;14.07;;;6.30;;
73100;SDS011;61288;53.446;-2.266;2023-01-16T00:15:14;14.70;;;6.85;;
73100;SDS011;61288;53.446;-2.266;2023-01-16T00:17:40;15.15;;;5.43;;
73100;SDS011;61288;53.446;-2.266;2023-01-16T00:20:06;15.00;;;6.78;;
73100;SDS011;61288;53.446;-2.266;2023-01-16T00:22:31;15.40;;;6.40;;
73100;SDS011;61288;53.446;-2.266;2023-01-16T00:24:57;17.20;;;6.70;;
73100;SDS011;61288;53.446;-2.266;2023-01-16T00:27:22;18.90;;;6.32;;
73100;SDS011;61288;53.446;-2.266;2023-01-16T00:29:50;14.13;;;6.43;;
73100;SDS011;61288;53.446;-2.266;2023-01-16T00:32:16;14.05;;;6.00;;
73100;SDS011;61288;53.446;-2.266;2023-01-16T00:34:42;14.20;;;6.45;;
73100;SDS011;61288;53.446;-2.266;2023-01-16T00:37:07;17.95;;;7.88;;
73100;SDS011;61288;53.446;-2.266;2023-01-16T00:39:33;15.85;;;6.53;;
73100;SDS011;61288;53.446;-2.266;2023-01-16T00:41:59;13.93;;;6.50;;
73100;SDS011;61288;53.446;-2.266;2023-01-16T00:44:24;14.18;;;5.80;;
73100;SDS011;61288;53.446;-2.266;2023-01-16T00:46:50;14.63;;;5.78;;
73100;SDS011;61288;53.446;-2.266;2023-01-16T00:49:16;15.00;;;6.80;;
73100;SDS011;61288;53.446;-2.266;2023-01-16T00:51:41;13.23;;;6.43;;
73100;SDS011;61288;53.446;-2.266;2023-01-16T00:54:06;16.90;;;7.38;;
73100;SDS011;61288;53.446;-2.266;2023-01-16T00:56:32;17.90;;;7.75;;
73100;SDS011;61288;53.446;-2.266;2023-01-16T00:58:57;16.83;;;7.07;;
73100;SDS011;61288;53.446;-2.266;2023-01-16T01:01:22;15.57;;;6.70;;
73100;SDS011;61288;53.446;-2.266;2023-01-16T01:03:48;15.88;;;6.97;;
73100;SDS011;61288;53.446;-2.266;2023-01-16T01:06:13;17.02;;;6.75;;
73100;SDS011;61288;53.446;-2.266;2023-01-16T01:08:38;16.17;;;7.32;;
73100;SDS011;61288;53.446;-2.266;2023-01-16T01:11:11;16.27;;;7.35;;
73100;SDS011;61288;53.446;-2.266;2023-01-16T01:13:37;15.20;;;7.25;;
73100;SDS011;61288;53.446;-2.266;2023-01-16T01:16:03;17.33;;;6.88;;
73100;SDS011;61288;53.446;-2.266;2023-01-16T01:18:28;13.98;;;6.78;;
73100;SDS011;61288;53.446;-2.266;2023-01-16T01:20:53;19.67;;;7.22;;
73100;SDS011;61288;53.446;-2.266;2023-01-16T01:23:19;13.10;;;6.57;;
73100;SDS011;61288;53.446;-2.266;2023-01-16T01:25:44;14.20;;;6.45;;
73100;SDS011;61288;53.446;-2.266;2023-01-16T01:28:10;14.77;;;6.72;;
73100;SDS011;61288;53.446;-2.266;2023-01-16T01:30:35;15.55;;;6.43;;
73100;SDS011;61288;53.446;-2.266;2023-01-16T01:33:00;12.93;;;5.77;;
73100;SDS011;61288;53.446;-2.266;2023-01-16T01:35:26;20.63;;;7.82;;
73100;SDS011;61288;53.446;-2.266;2023-01-16T01:37:51;15.88;;;7.20;;
73100;SDS011;61288;53.446;-2.266;2023-01-16T01:40:16;15.25;;;7.03;;
73100;SDS011;61288;53.446;-2.266;2023-01-16T01:42:41;15.10;;;6.95;;
73100;SDS011;61288;53.446;-2.266;2023-01-16T01:47:39;16.55;;;6.85;;
73100;SDS011;61288;53.446;-2.266;2023-01-16T01:50:16;16.75;;;7.18;;
73100;SDS011;61288;53.446;-2.266;2023-01-16T01:52:44;18.83;;;7.40;;
73100;SDS011;61288;53.446;-2.266;2023-01-16T01:55:10;15.27;;;6.72;;
73100;SDS011;61288;53.446;-2.266;2023-01-16T01:57:39;17.85;;;7.72;;
73100;SDS011;61288;53.446;-2.266;2023-01-16T02:02:31;14.35;;;6.05;;
73100;SDS011;61288;53.446;-2.266;2023-01-16T02:04:57;16.42;;;6.85;;
73100;SDS011;61288;53.446;-2.266;2023-01-16T02:07:23;15.23;;;6.72;;
73100;SDS011;61288;53.446;-2.266;2023-01-16T02:09:50;17.33;;;7.50;;
73100;SDS011;61288;53.446;-2.266;2023-01-16T02:12:18;17.60;;;7.32;;
73100;SDS011;61288;53.446;-2.266;2023-01-16T02:14:43;13.43;;;6.32;;
73100;SDS011;61288;53.446;-2.266;2023-01-16T02:20:06;15.60;;;7.10;;
73100;SDS011;61288;53.446;-2.266;2023-01-16T02:22:50;15.13;;;7.25;;
73100;SDS011;61288;53.446;-2.266;2023-01-16T02:30:16;23.30;;;7.30;;
73100;SDS011;61288;53.446;-2.266;2023-01-16T02:38:08;16.95;;;7.53;;
73100;SDS011;61288;53.446;-2.266;2023-01-16T02:43:26;17.15;;;7.55;;
73100;SDS011;61288;53.446;-2.266;2023-01-16T02:49:00;16.17;;;7.60;;
73100;SDS011;61288;53.446;-2.266;2023-01-16T02:51:34;15.10;;;6.85;;
73100;SDS011;61288;53.446;-2.266;2023-01-16T02:54:11;15.98;;;6.70;;
73100;SDS011;61288;53.446;-2.266;2023-01-16T02:57:25;16.88;;;7.32;;
73100;SDS011;61288;53.446;-2.266;2023-01-16T02:59:25;15.75;;;7.72;;
73100;SDS011;61288;53.446;-2.266;2023-01-16T03:01:52;16.15;;;7.45;;
73100;SDS011;61288;53.446;-2.266;2023-01-16T03:14:38;20.30;;;8.95;;
73100;SDS011;61288;53.446;-2.266;2023-01-16T03:17:10;20.13;;;8.85;;
73100;SDS011;61288;53.446;-2.266;2023-01-16T03:22:47;20.63;;;9.70;;
73100;SDS011;61288;53.446;-2.266;2023-01-16T03:25:28;18.98;;;9.55;;
73100;SDS011;61288;53.446;-2.266;2023-01-16T03:30:31;19.95;;;9.05;;
73100;SDS011;61288;53.446;-2.266;2023-01-16T03:33:02;21.55;;;7.97;;
73100;SDS011;61288;53.446;-2.266;2023-01-16T03:35:32;16.83;;;7.93;;
73100;SDS011;61288;53.446;-2.266;2023-01-16T03:38:04;16.60;;;7.28;;
73100;SDS011;61288;53.446;-2.266;2023-01-16T03:40:31;15.40;;;6.68;;
73100;SDS011;61288;53.446;-2.266;2023-01-16T03:45:34;15.77;;;6.28;;
73100;SDS011;61288;53.446;-2.266;2023-01-16T03:50:56;16.00;;;6.70;;
73100;SDS011;61288;53.446;-2.266;2023-01-16T03:53:23;17.50;;;7.47;;
73100;SDS011;61288;53.446;-2.266;2023-01-16T03:55:52;16.35;;;7.82;;
73100;SDS011;61288;53.446;-2.266;2023-01-16T03:58:21;18.38;;;8.10;;
73100;SDS011;61288;53.446;-2.266;2023-01-16T04:03:33;15.98;;;7.03;;
73100;SDS011;61288;53.446;-2.266;2023-01-16T04:06:03;19.27;;;8.10;;
73100;SDS011;61288;53.446;-2.266;2023-01-16T04:08:34;17.88;;;7.22;;
73100;SDS011;61288;53.446;-2.266;2023-01-16T04:11:02;19.88;;;7.70;;
73100;SDS011;61288;53.446;-2.266;2023-01-16T04:13:30;21.02;;;8.65;;
73100;SDS011;61288;53.446;-2.266;2023-01-16T04:15:57;20.42;;;8.55;;
73100;SDS011;61288;53.446;-2.266;2023-01-16T04:18:25;17.20;;;7.57;;
73100;SDS011;61288;53.446;-2.266;2023-01-16T04:20:51;17.92;;;7.13;;
73100;SDS011;61288;53.446;-2.266;2023-01-16T04:23:16;16.85;;;7.75;;
73100;SDS011;61288;53.446;-2.266;2023-01-16T04:25:42;18.48;;;7.30;;
73100;SDS011;61288;53.446;-2.266;2023-01-16T04:28:08;16.92;;;6.03;;
73100;SDS011;61288;53.446;-2.266;2023-01-16T04:30:33;15.13;;;6.13;;
73100;SDS011;61288;53.446;-2.266;2023-01-16T04:33:02;17.85;;;6.88;;
73100;SDS011;61288;53.446;-2.266;2023-01-16T04:35:27;15.50;;;6.45;;
73100;SDS011;61288;53.446;-2.266;2023-01-16T04:37:53;16.73;;;7.27;;
73100;SDS011;61288;53.446;-2.266;2023-01-16T04:40:19;18.88;;;7.28;;
73100;SDS011;61288;53.446;-2.266;2023-01-16T04:42:45;19.05;;;5.82;;
73100;SDS011;61288;53.446;-2.266;2023-01-16T04:45:10;14.30;;;5.43;;
73100;SDS011;61288;53.446;-2.266;2023-01-16T04:47:36;16.20;;;5.47;;
73100;SDS011;61288;53.446;-2.266;2023-01-16T04:50:01;19.25;;;7.43;;
73100;SDS011;61288;53.446;-2.266;2023-01-16T04:52:26;25.33;;;8.80;;
73100;SDS011;61288;53.446;-2.266;2023-01-16T04:54:51;18.38;;;6.70;;
73100;SDS011;61288;53.446;-2.266;2023-01-16T04:57:17;17.48;;;6.32;;
73100;SDS011;61288;53.446;-2.266;2023-01-16T04:59:42;17.55;;;6.28;;
73100;SDS011;61288;53.446;-2.266;2023-01-16T05:02:07;17.48;;;6.53;;
73100;SDS011;61288;53.446;-2.266;2023-01-16T05:04:33;17.48;;;6.53;;
73100;SDS011;61288;53.446;-2.266;2023-01-16T05:06:58;17.67;;;6.55;;
73100;SDS011;61288;53.446;-2.266;2023-01-16T05:09:23;16.00;;;6.22;;
73100;SDS011;61288;53.446;-2.266;2023-01-16T05:11:49;16.92;;;6.53;;
73100;SDS011;61288;53.446;-2.266;2023-01-16T05:14:14;18.90;;;6.72;;
73100;SDS011;61288;53.446;-2.266;2023-01-16T05:16:39;15.57;;;6.57;;
73100;SDS011;61288;53.446;-2.266;2023-01-16T05:19:08;18.15;;;6.80;;
73100;SDS011;61288;53.446;-2.266;2023-01-16T05:21:33;22.00;;;7.75;;
73100;SDS011;61288;53.446;-2.266;2023-01-16T05:23:59;18.55;;;7.25;;
73100;SDS011;61288;53.446;-2.266;2023-01-16T05:26:25;20.75;;;8.88;;
73100;SDS011;61288;53.446;-2.266;2023-01-16T05:28:50;20.02;;;7.80;;
73100;SDS011;61288;53.446;-2.266;2023-01-16T05:31:17;21.25;;;8.32;;
73100;SDS011;61288;53.446;-2.266;2023-01-16T05:33:43;23.83;;;8.52;;
73100;SDS011;61288;53.446;-2.266;2023-01-16T05:36:08;21.52;;;8.38;;
73100;SDS011;61288;53.446;-2.266;2023-01-16T05:38:34;22.48;;;9.43;;
73100;SDS011;61288;53.446;-2.266;2023-01-16T05:40:59;28.48;;;8.93;;
73100;SDS011;61288;53.446;-2.266;2023-01-16T05:43:24;26.17;;;8.43;;
73100;SDS011;61288;53.446;-2.266;2023-01-16T05:45:50;23.23;;;7.80;;
73100;SDS011;61288;53.446;-2.266;2023-01-16T05:48:16;26.02;;;8.70;;
73100;SDS011;61288;53.446;-2.266;2023-01-16T05:50:41;27.20;;;8.32;;
73100;SDS011;61288;53.446;-2.266;2023-01-16T05:53:06;27.48;;;9.13;;
73100;SDS011;61288;53.446;-2.266;2023-01-16T05:55:35;26.35;;;8.20;;
73100;SDS011;61288;53.446;-2.266;2023-01-16T05:58:04;23.65;;;8.52;;
73100;SDS011;61288;53.446;-2.266;2023-01-16T06:00:29;23.60;;;8.23;;
73100;SDS011;61288;53.446;-2.266;2023-01-16T06:02:56;20.90;;;7.30;;
73100;SDS011;61288;53.446;-2.266;2023-01-16T06:05:21;22.17;;;7.30;;
73100;SDS011;61288;53.446;-2.266;2023-01-16T06:07:46;17.92;;;6.13;;
73100;SDS011;61288;53.446;-2.266;2023-01-16T06:10:12;19.60;;;6.93;;
73100;SDS011;61288;53.446;-2.266;2023-01-16T06:12:38;20.27;;;6.85;;
73100;SDS011;61288;53.446;-2.266;2023-01-16T06:15:04;25.15;;;7.07;;
73100;SDS011;61288;53.446;-2.266;2023-01-16T06:17:29;20.65;;;6.30;;
73100;SDS011;61288;53.446;-2.266;2023-01-16T06:19:55;18.13;;;5.93;;
73100;SDS011;61288;53.446;-2.266;2023-01-16T06:22:21;19.13;;;6.68;;
73100;SDS011;61288;53.446;-2.266;2023-01-16T06:24:47;19.23;;;6.63;;
73100;SDS011;61288;53.446;-2.266;2023-01-16T06:27:12;21.77;;;6.53;;
73100;SDS011;61288;53.446;-2.266;2023-01-16T06:29:38;22.10;;;6.05;;
73100;SDS011;61288;53.446;-2.266;2023-01-16T06:32:04;19.70;;;6.88;;
73100;SDS011;61288;53.446;-2.266;2023-01-16T06:34:29;15.68;;;5.57;;
73100;SDS011;61288;53.446;-2.266;2023-01-16T06:36:55;18.95;;;5.40;;
73100;SDS011;61288;53.446;-2.266;2023-01-16T06:39:20;19.20;;;5.65;;
73100;SDS011;61288;53.446;-2.266;2023-01-16T06:41:46;16.45;;;5.38;;
73100;SDS011;61288;53.446;-2.266;2023-01-16T06:44:11;15.70;;;5.22;;
73100;SDS011;61288;53.446;-2.266;2023-01-16T06:46:37;17.77;;;6.10;;
73100;SDS011;61288;53.446;-2.266;2023-01-16T06:49:03;15.07;;;4.93;;
73100;SDS011;61288;53.446;-2.266;2023-01-16T06:51:28;14.55;;;4.68;;
73100;SDS011;61288;53.446;-2.266;2023-01-16T06:53:53;16.55;;;5.32;;
73100;SDS011;61288;53.446;-2.266;2023-01-16T06:56:19;14.68;;;5.20;;
73100;SDS011;61288;53.446;-2.266;2023-01-16T06:58:44;13.82;;;5.15;;
73100;SDS011;61288;53.446;-2.266;2023-01-16T07:01:09;13.70;;;4.55;;
73100;SDS011;61288;53.446;-2.266;2023-01-16T07:03:35;13.37;;;4.53;;
73100;SDS011;61288;53.446;-2.266;2023-01-16T07:06:00;10.73;;;3.90;;
73100;SDS011;61288;53.446;-2.266;2023-01-16T07:08:26;10.90;;;3.78;;
73100;SDS011;61288;53.446;-2.266;2023-01-16T07:10:51;9.88;;;4.03;;
73100;SDS011;61288;53.446;-2.266;2023-01-16T07:13:16;9.82;;;3.25;;
73100;SDS011;61288;53.446;-2.266;2023-01-16T07:15:44;11.85;;;3.60;;
73100;SDS011;61288;53.446;-2.266;2023-01-16T07:18:29;12.05;;;3.47;;
73100;SDS011;61288;53.446;-2.266;2023-01-16T07:21:16;9.15;;;3.20;;
73100;SDS011;61288;53.446;-2.266;2023-01-16T07:24:06;10.05;;;2.95;;
73100;SDS011;61288;53.446;-2.266;2023-01-16T07:26:33;8.65;;;2.63;;
73100;SDS011;61288;53.446;-2.266;2023-01-16T07:28:59;9.65;;;2.75;;
73100;SDS011;61288;53.446;-2.266;2023-01-16T07:31:27;9.02;;;2.88;;
73100;SDS011;61288;53.446;-2.266;2023-01-16T07:33:53;9.18;;;2.80;;
73100;SDS011;61288;53.446;-2.266;2023-01-16T07:36:18;6.72;;;2.72;;
73100;SDS011;61288;53.446;-2.266;2023-01-16T07:38:43;7.28;;;2.10;;
73100;SDS011;61288;53.446;-2.266;2023-01-16T07:41:09;8.30;;;3.17;;
73100;SDS011;61288;53.446;-2.266;2023-01-16T07:43:34;9.15;;;2.70;;
73100;SDS011;61288;53.446;-2.266;2023-01-16T07:45:59;8.27;;;2.72;;
73100;SDS011;61288;53.446;-2.266;2023-01-16T07:48:25;8.50;;;2.50;;
73100;SDS011;61288;53.446;-2.266;2023-01-16T07:50:54;10.47;;;2.80;;
73100;SDS011;61288;53.446;-2.266;2023-01-16T07:53:20;8.02;;;2.13;;
73100;SDS011;61288;53.446;-2.266;2023-01-16T07:55:48;7.60;;;2.70;;
73100;SDS011;61288;53.446;-2.266;2023-01-16T07:58:14;8.55;;;2.80;;
73100;SDS011;61288;53.446;-2.266;2023-01-16T08:00:39;7.47;;;2.38;;
73100;SDS011;61288;53.446;-2.266;2023-01-16T08:03:07;8.45;;;3.17;;
73100;SDS011;61288;53.446;-2.266;2023-01-16T08:05:36;8.30;;;2.70;;
73100;SDS011;61288;53.446;-2.266;2023-01-16T08:08:02;7.97;;;2.95;;
73100;SDS011;61288;53.446;-2.266;2023-01-16T08:10:30;9.23;;;3.10;;
73100;SDS011;61288;53.446;-2.266;2023-01-16T08:12:56;8.43;;;2.90;;
73100;SDS011;61288;53.446;-2.266;2023-01-16T08:15:21;9.45;;;3.33;;
73100;SDS011;61288;53.446;-2.266;2023-01-16T08:17:47;10.32;;;3.58;;
73100;SDS011;61288;53.446;-2.266;2023-01-16T08:20:13;9.32;;;3.15;;
73100;SDS011;61288;53.446;-2.266;2023-01-16T08:22:46;12.02;;;3.15;;
73100;SDS011;61288;53.446;-2.266;2023-01-16T08:25:18;13.30;;;4.13;;
73100;SDS011;61288;53.446;-2.266;2023-01-16T08:27:44;9.27;;;3.55;;
73100;SDS011;61288;53.446;-2.266;2023-01-16T08:30:09;10.70;;;3.38;;
73100;SDS011;61288;53.446;-2.266;2023-01-16T08:32:36;8.48;;;2.70;;
73100;SDS011;61288;53.446;-2.266;2023-01-16T08:35:21;9.13;;;3.15;;
73100;SDS011;61288;53.446;-2.266;2023-01-16T08:37:47;10.77;;;3.92;;
73100;SDS011;61288;53.446;-2.266;2023-01-16T08:40:13;12.02;;;4.03;;
73100;SDS011;61288;53.446;-2.266;2023-01-16T08:42:42;12.98;;;4.90;;
73100;SDS011;61288;53.446;-2.266;2023-01-16T08:45:29;11.15;;;3.20;;
73100;SDS011;61288;53.446;-2.266;2023-01-16T08:51:27;8.85;;;3.00;;
73100;SDS011;61288;53.446;-2.266;2023-01-16T08:53:54;9.70;;;2.78;;
73100;SDS011;61288;53.446;-2.266;2023-01-16T08:56:27;10.48;;;3.17;;
73100;SDS011;61288;53.446;-2.266;2023-01-16T08:58:53;11.13;;;3.33;;
73100;SDS011;61288;53.446;-2.266;2023-01-16T09:01:18;8.57;;;2.88;;
73100;SDS011;61288;53.446;-2.266;2023-01-16T09:03:50;7.10;;;2.53;;
73100;SDS011;61288;53.446;-2.266;2023-01-16T09:06:15;8.90;;;2.92;;
73100;SDS011;61288;53.446;-2.266;2023-01-16T09:08:40;8.38;;;2.90;;
73100;SDS011;61288;53.446;-2.266;2023-01-16T09:11:06;8.60;;;3.33;;
73100;SDS011;61288;53.446;-2.266;2023-01-16T09:13:52;11.10;;;3.70;;
73100;SDS011;61288;53.446;-2.266;2023-01-16T09:16:24;9.75;;;3.00;;
73100;SDS011;61288;53.446;-2.266;2023-01-16T09:18:50;10.48;;;3.30;;
73100;SDS011;61288;53.446;-2.266;2023-01-16T09:21:23;9.32;;;3.17;;
73100;SDS011;61288;53.446;-2.266;2023-01-16T09:23:49;10.07;;;2.70;;
73100;SDS011;61288;53.446;-2.266;2023-01-16T09:26:15;8.40;;;3.20;;
73100;SDS011;61288;53.446;-2.266;2023-01-16T09:28:40;8.80;;;3.20;;
73100;SDS011;61288;53.446;-2.266;2023-01-16T09:31:08;8.52;;;3.15;;
73100;SDS011;61288;53.446;-2.266;2023-01-16T09:33:33;10.73;;;2.80;;
73100;SDS011;61288;53.446;-2.266;2023-01-16T09:35:59;8.15;;;3.03;;
73100;SDS011;61288;53.446;-2.266;2023-01-16T09:38:24;11.40;;;2.80;;
73100;SDS011;61288;53.446;-2.266;2023-01-16T09:40:51;7.07;;;2.53;;
73100;SDS011;61288;53.446;-2.266;2023-01-16T09:46:06;9.13;;;2.72;;
73100;SDS011;61288;53.446;-2.266;2023-01-16T09:48:33;7.70;;;2.90;;
73100;SDS011;61288;53.446;-2.266;2023-01-16T09:51:42;9.43;;;2.40;;
73100;SDS011;61288;53.446;-2.266;2023-01-16T09:56:36;9.07;;;2.53;;
73100;SDS011;61288;53.446;-2.266;2023-01-16T10:01:38;9.60;;;3.15;;
73100;SDS011;61288;53.446;-2.266;2023-01-16T10:04:17;11.63;;;3.33;;
73100;SDS011;61288;53.446;-2.266;2023-01-16T10:12:04;10.80;;;3.92;;
73100;SDS011;61288;53.446;-2.266;2023-01-16T10:25:31;2.80;;;1.38;;
73100;SDS011;61288;53.446;-2.266;2023-01-16T10:30:55;2.95;;;1.48;;
73100;SDS011;61288;53.446;-2.266;2023-01-16T10:33:28;3.03;;;1.48;;
73100;SDS011;61288;53.446;-2.266;2023-01-16T10:36:00;2.40;;;1.20;;
73100;SDS011;61288;53.446;-2.266;2023-01-16T10:41:01;2.45;;;1.35;;
73100;SDS011;61288;53.446;-2.266;2023-01-16T10:43:47;1.65;;;1.10;;
73100;SDS011;61288;53.446;-2.266;2023-01-16T10:46:32;1.58;;;0.90;;
73100;SDS011;61288;53.446;-2.266;2023-01-16T10:49:20;0.98;;;0.98;;
73100;SDS011;61288;53.446;-2.266;2023-01-16T10:51:56;2.22;;;0.90;;
73100;SDS011;61288;53.446;-2.266;2023-01-16T10:54:22;5.70;;;0.90;;
73100;SDS011;61288;53.446;-2.266;2023-01-16T10:56:47;0.90;;;0.85;;
73100;SDS011;61288;53.446;-2.266;2023-01-16T10:59:12;0.90;;;0.70;;
73100;SDS011;61288;53.446;-2.266;2023-01-16T11:01:39;0.93;;;0.75;;
73100;SDS011;61288;53.446;-2.266;2023-01-16T11:04:06;0.65;;;0.65;;
73100;SDS011;61288;53.446;-2.266;2023-01-16T11:06:34;1.77;;;0.80;;
73100;SDS011;61288;53.446;-2.266;2023-01-16T11:09:06;2.08;;;0.80;;
73100;SDS011;61288;53.446;-2.266;2023-01-16T11:11:36;0.98;;;0.90;;
73100;SDS011;61288;53.446;-2.266;2023-01-16T11:17:10;0.63;;;0.63;;
73100;SDS011;61288;53.446;-2.266;2023-01-16T11:20:03;1.75;;;0.88;;
73100;SDS011;61288;53.446;-2.266;2023-01-16T11:22:29;1.17;;;0.63;;
73100;SDS011;61288;53.446;-2.266;2023-01-16T11:24:58;1.80;;;0.95;;
73100;SDS011;61288;53.446;-2.266;2023-01-16T11:27:25;1.65;;;0.90;;
73100;SDS011;61288;53.446;-2.266;2023-01-16T11:29:54;0.95;;;0.80;;
73100;SDS011;61288;53.446;-2.266;2023-01-16T11:32:20;1.83;;;1.00;;
73100;SDS011;61288;53.446;-2.266;2023-01-16T11:34:54;1.48;;;0.90;;
73100;SDS011;61288;53.446;-2.266;2023-01-16T11:37:20;3.47;;;1.20;;
73100;SDS011;61288;53.446;-2.266;2023-01-16T11:39:47;3.97;;;0.90;;
73100;SDS011;61288;53.446;-2.266;2023-01-16T11:42:13;2.88;;;1.20;;
73100;SDS011;61288;53.446;-2.266;2023-01-16T11:44:58;2.15;;;1.08;;
73100;SDS011;61288;53.446;-2.266;2023-01-16T11:47:43;1.85;;;1.05;;
73100;SDS011;61288;53.446;-2.266;2023-01-16T11:50:27;3.00;;;1.17;;
73100;SDS011;61288;53.446;-2.266;2023-01-16T11:52:52;4.80;;;1.40;;
73100;SDS011;61288;53.446;-2.266;2023-01-16T11:55:18;3.95;;;1.30;;
73100;SDS011;61288;53.446;-2.266;2023-01-16T11:57:50;1.20;;;1.00;;
73100;SDS011;61288;53.446;-2.266;2023-01-16T12:00:34;0.82;;;0.80;;
73100;SDS011;61288;53.446;-2.266;2023-01-16T12:08:31;1.60;;;0.80;;
73100;SDS011;61288;53.446;-2.266;2023-01-16T12:11:06;1.85;;;0.90;;
73100;SDS011;61288;53.446;-2.266;2023-01-16T12:16:18;1.60;;;0.90;;
73100;SDS011;61288;53.446;-2.266;2023-01-16T12:24:18;3.60;;;1.20;;
73100;SDS011;61288;53.446;-2.266;2023-01-16T12:26:49;2.45;;;1.20;;
73100;SDS011;61288;53.446;-2.266;2023-01-16T12:32:04;1.35;;;1.10;;
73100;SDS011;61288;53.446;-2.266;2023-01-16T12:47:38;2.33;;;0.98;;
73100;SDS011;61288;53.446;-2.266;2023-01-16T12:50:28;1.58;;;0.98;;
73100;SDS011;61288;53.446;-2.266;2023-01-16T12:53:14;1.67;;;1.08;;
73100;SDS011;61288;53.446;-2.266;2023-01-16T12:58:17;3.42;;;1.10;;
73100;SDS011;61288;53.446;-2.266;2023-01-16T13:05:56;1.35;;;0.90;;
73100;SDS011;61288;53.446;-2.266;2023-01-16T13:08:25;1.17;;;0.90;;
73100;SDS011;61288;53.446;-2.266;2023-01-16T13:10:55;2.65;;;1.00;;
73100;SDS011;61288;53.446;-2.266;2023-01-16T13:13:51;1.77;;;0.80;;
73100;SDS011;61288;53.446;-2.266;2023-01-16T13:21:19;1.38;;;1.00;;
73100;SDS011;61288;53.446;-2.266;2023-01-16T13:23:52;1.33;;;0.93;;
73100;SDS011;61288;53.446;-2.266;2023-01-16T13:26:19;1.48;;;1.05;;
73100;SDS011;61288;53.446;-2.266;2023-01-16T13:28:48;3.28;;;1.00;;
73100;SDS011;61288;53.446;-2.266;2023-01-16T13:33:51;1.45;;;1.00;;
73100;SDS011;61288;53.446;-2.266;2023-01-16T13:41:20;1.70;;;0.80;;
73100;SDS011;61288;53.446;-2.266;2023-01-16T13:43:51;1.08;;;0.98;;
73100;SDS011;61288;53.446;-2.266;2023-01-16T13:46:37;0.40;;;0.40;;
73100;SDS011;61288;53.446;-2.266;2023-01-16T13:49:03;2.22;;;1.10;;
73100;SDS011;61288;53.446;-2.266;2023-01-16T13:51:29;1.55;;;0.77;;
73100;SDS011;61288;53.446;-2.266;2023-01-16T13:53:59;2.72;;;1.05;;
73100;SDS011;61288;53.446;-2.266;2023-01-16T13:56:28;2.60;;;1.20;;
73100;SDS011;61288;53.446;-2.266;2023-01-16T14:01:32;1.23;;;0.88;;
73100;SDS011;61288;53.446;-2.266;2023-01-16T14:04:10;2.80;;;1.00;;
73100;SDS011;61288;53.446;-2.266;2023-01-16T14:06:42;1.73;;;1.02;;
73100;SDS011;61288;53.446;-2.266;2023-01-16T14:09:13;0.50;;;0.50;;
73100;SDS011;61288;53.446;-2.266;2023-01-16T14:14:29;1.42;;;0.93;;
73100;SDS011;61288;53.446;-2.266;2023-01-16T14:17:14;1.13;;;1.00;;
73100;SDS011;61288;53.446;-2.266;2023-01-16T14:19:50;2.33;;;1.08;;
73100;SDS011;61288;53.446;-2.266;2023-01-16T14:22:26;2.58;;;1.10;;
73100;SDS011;61288;53.446;-2.266;2023-01-16T14:24:58;3.75;;;1.00;;
73100;SDS011;61288;53.446;-2.266;2023-01-16T14:27:31;5.82;;;1.27;;
73100;SDS011;61288;53.446;-2.266;2023-01-16T14:30:02;2.85;;;1.10;;
73100;SDS011;61288;53.446;-2.266;2023-01-16T14:32:28;3.03;;;1.00;;
73100;SDS011;61288;53.446;-2.266;2023-01-16T14:40:12;1.75;;;1.10;;
73100;SDS011;61288;53.446;-2.266;2023-01-16T14:45:33;3.15;;;1.00;;
73100;SDS011;61288;53.446;-2.266;2023-01-16T14:56:46;1.27;;;1.17;;
73100;SDS011;61288;53.446;-2.266;2023-01-16T14:59:14;1.00;;;0.95;;
73100;SDS011;61288;53.446;-2.266;2023-01-16T15:01:50;1.65;;;1.38;;
73100;SDS011;61288;53.446;-2.266;2023-01-16T15:04:38;3.60;;;1.33;;
73100;SDS011;61288;53.446;-2.266;2023-01-16T15:07:08;3.00;;;0.90;;
73100;SDS011;61288;53.446;-2.266;2023-01-16T15:09:36;1.42;;;1.00;;
73100;SDS011;61288;53.446;-2.266;2023-01-16T15:12:09;3.33;;;1.40;;
73100;SDS011;61288;53.446;-2.266;2023-01-16T15:14:34;2.08;;;1.23;;
73100;SDS011;61288;53.446;-2.266;2023-01-16T15:17:17;1.55;;;1.00;;
73100;SDS011;61288;53.446;-2.266;2023-01-16T15:22:50;2.83;;;1.30;;
73100;SDS011;61288;53.446;-2.266;2023-01-16T15:25:19;2.55;;;1.30;;
73100;SDS011;61288;53.446;-2.266;2023-01-16T15:27:48;6.63;;;1.50;;
73100;SDS011;61288;53.446;-2.266;2023-01-16T15:30:16;2.58;;;0.98;;
73100;SDS011;61288;53.446;-2.266;2023-01-16T15:35:18;2.55;;;1.50;;
73100;SDS011;61288;53.446;-2.266;2023-01-16T15:37:51;5.50;;;1.60;;
73100;SDS011;61288;53.446;-2.266;2023-01-16T15:40:35;3.97;;;1.45;;
73100;SDS011;61288;53.446;-2.266;2023-01-16T15:43:01;6.18;;;1.88;;
73100;SDS011;61288;53.446;-2.266;2023-01-16T15:48:56;3.35;;;1.08;;
73100;SDS011;61288;53.446;-2.266;2023-01-16T15:51:26;2.88;;;1.25;;
73100;SDS011;61288;53.446;-2.266;2023-01-16T15:53:52;2.45;;;1.25;;
73100;SDS011;61288;53.446;-2.266;2023-01-16T15:56:24;4.53;;;1.60;;
73100;SDS011;61288;53.446;-2.266;2023-01-16T15:58:51;5.28;;;1.60;;
73100;SDS011;61288;53.446;-2.266;2023-01-16T16:01:23;3.75;;;1.73;;
73100;SDS011;61288;53.446;-2.266;2023-01-16T16:03:50;3.10;;;1.40;;
73100;SDS011;61288;53.446;-2.266;2023-01-16T16:06:19;4.55;;;1.63;;
73100;SDS011;61288;53.446;-2.266;2023-01-16T16:08:46;5.78;;;1.38;;
73100;SDS011;61288;53.446;-2.266;2023-01-16T16:11:33;3.67;;;1.45;;
73100;SDS011;61288;53.446;-2.266;2023-01-16T16:14:19;3.25;;;1.67;;
73100;SDS011;61288;53.446;-2.266;2023-01-16T16:17:04;5.55;;;1.88;;
73100;SDS011;61288;53.446;-2.266;2023-01-16T16:19:48;4.32;;;1.60;;
73100;SDS011;61288;53.446;-2.266;2023-01-16T16:22:16;3.95;;;1.50;;
73100;SDS011;61288;53.446;-2.266;2023-01-16T16:25:10;5.90;;;1.52;;
73100;SDS011;61288;53.446;-2.266;2023-01-16T16:27:41;5.47;;;1.80;;
73100;SDS011;61288;53.446;-2.266;2023-01-16T16:30:06;5.43;;;1.80;;
73100;SDS011;61288;53.446;-2.266;2023-01-16T16:32:34;4.80;;;1.75;;
73100;SDS011;61288;53.446;-2.266;2023-01-16T16:35:00;3.78;;;1.90;;
73100;SDS011;61288;53.446;-2.266;2023-01-16T16:37:25;4.75;;;1.95;;
73100;SDS011;61288;53.446;-2.266;2023-01-16T16:40:08;4.80;;;1.77;;
73100;SDS011;61288;53.446;-2.266;2023-01-16T16:47:30;3.80;;;1.70;;
73100;SDS011;61288;53.446;-2.266;2023-01-16T16:49:56;4.57;;;1.70;;
73100;SDS011;61288;53.446;-2.266;2023-01-16T16:54:53;7.90;;;1.80;;
73100;SDS011;61288;53.446;-2.266;2023-01-16T16:57:19;5.72;;;1.60;;
73100;SDS011;61288;53.446;-2.266;2023-01-16T16:59:48;4.47;;;1.60;;
73100;SDS011;61288;53.446;-2.266;2023-01-16T17:02:14;4.72;;;1.90;;
73100;SDS011;61288;53.446;-2.266;2023-01-16T17:04:39;6.28;;;1.35;;
73100;SDS011;61288;53.446;-2.266;2023-01-16T17:07:05;4.50;;;1.80;;
73100;SDS011;61288;53.446;-2.266;2023-01-16T17:09:31;6.85;;;1.85;;
73100;SDS011;61288;53.446;-2.266;2023-01-16T17:11:59;7.15;;;2.20;;
73100;SDS011;61288;53.446;-2.266;2023-01-16T17:14:37;6.10;;;2.08;;
73100;SDS011;61288;53.446;-2.266;2023-01-16T17:17:03;4.22;;;1.90;;
73100;SDS011;61288;53.446;-2.266;2023-01-16T17:19:29;5.05;;;1.95;;
73100;SDS011;61288;53.446;-2.266;2023-01-16T17:21:55;4.90;;;1.90;;
73100;SDS011;61288;53.446;-2.266;2023-01-16T17:24:21;6.90;;;1.98;;
73100;SDS011;61288;53.446;-2.266;2023-01-16T17:26:46;5.07;;;1.80;;
73100;SDS011;61288;53.446;-2.266;2023-01-16T17:29:11;6.97;;;2.00;;
73100;SDS011;61288;53.446;-2.266;2023-01-16T17:31:37;8.30;;;2.10;;